Главная страница
METAR-TAF:

METAR-TAF

Аэропорты :

Джибути, Джибути

широта: 11-33N, долгота: 043-10E, высота над уровнем моря: 49 м

Текущие метеонаблюдения

Эта сводка был подготовлена 4 часа и 28 минут назад, в 09:00 UTC
Ветер 10 Узел от восточный
Температура 33°C
Влажность 63%
Давление 1011 hPa
Видимость 10 км и более
небольшая облачность на высоте 2300 фута

METAR: HDAM 230900Z 08010KT 9999 FEW023 33/25 Q1011

Время: 16:28 (13:28 UTC)

Прогноз

Эта сводка был подготовлена 8 часа и 28 минут назад, в 05:00 UTC
Прогноз действительный с 23-го 06 UTC до 24-го 06 UTC
Ветер 10 Узел от восточный
Видимость 10 км и более
Отдельные облака на высоте 2300 фута
изменения
С 23-го 15 UTC до 24-го 06 UTC
Ветер 3 Узел переменных направлений
Отдельные облака на высоте 2000 фута
Отдельные облака на высоте 3000 фута

TAF: HDAM 230500Z 2306/2406 10010KT 9999 SCT023 BECMG 2315/2406 VRB03KT SCT020 SCT030

Метеонаблюдения и прогнозы для более 4000 аэропортов (сводки METAR и TAF).

Имеющиеся станции представлены на карте желтыми и красными точками.

Чтобы увидеть название станции, наведите на нее мышь.

Затем щелкните, чтобы увидеть метеонаблюдения и метеопрогнозы.

Управление картой: чтобы увеличить масштаб, щелкните зеленые кнопки с черным крестиком; чтобы уменьшить масштаб, щелкните зеленую кнопку с тире; для просмотра соседних карт щелкайте зеленые стрелки.


METAR-TAF: